sensor_id;sensor_type;location;lat;lon;timestamp;temperature;humidity
68826;DHT22;55841;53.392;10.086;2022-11-15T00:00:18;5.40;93.40
68826;DHT22;55841;53.392;10.086;2022-11-15T00:02:44;5.40;93.60
68826;DHT22;55841;53.392;10.086;2022-11-15T00:05:09;5.50;93.70
68826;DHT22;55841;53.392;10.086;2022-11-15T00:07:35;5.50;93.80
68826;DHT22;55841;53.392;10.086;2022-11-15T00:10:00;5.50;93.50
68826;DHT22;55841;53.392;10.086;2022-11-15T00:12:27;5.50;93.40
68826;DHT22;55841;53.392;10.086;2022-11-15T00:14:53;5.50;93.30
68826;DHT22;55841;53.392;10.086;2022-11-15T00:17:18;5.50;93.00
68826;DHT22;55841;53.392;10.086;2022-11-15T00:19:44;5.50;92.90
68826;DHT22;55841;53.392;10.086;2022-11-15T00:22:09;5.50;93.00
68826;DHT22;55841;53.392;10.086;2022-11-15T00:24:35;5.50;93.10
68826;DHT22;55841;53.392;10.086;2022-11-15T00:27:00;5.50;93.20
68826;DHT22;55841;53.392;10.086;2022-11-15T00:29:26;5.60;93.40
68826;DHT22;55841;53.392;10.086;2022-11-15T00:31:52;5.60;93.40
68826;DHT22;55841;53.392;10.086;2022-11-15T00:34:17;5.70;93.40
68826;DHT22;55841;53.392;10.086;2022-11-15T00:36:43;5.70;93.50
68826;DHT22;55841;53.392;10.086;2022-11-15T00:39:08;5.70;93.40
68826;DHT22;55841;53.392;10.086;2022-11-15T00:41:34;5.70;93.40
68826;DHT22;55841;53.392;10.086;2022-11-15T00:43:59;5.70;93.40
68826;DHT22;55841;53.392;10.086;2022-11-15T00:46:25;5.70;93.40
68826;DHT22;55841;53.392;10.086;2022-11-15T00:48:50;5.70;93.50
68826;DHT22;55841;53.392;10.086;2022-11-15T00:51:16;5.70;93.50
68826;DHT22;55841;53.392;10.086;2022-11-15T00:53:41;5.80;93.50
68826;DHT22;55841;53.392;10.086;2022-11-15T00:56:07;5.70;93.40
68826;DHT22;55841;53.392;10.086;2022-11-15T00:58:32;5.80;93.30
68826;DHT22;55841;53.392;10.086;2022-11-15T01:01:06;5.70;93.10
68826;DHT22;55841;53.392;10.086;2022-11-15T01:03:33;5.70;93.00
68826;DHT22;55841;53.392;10.086;2022-11-15T01:05:59;5.70;92.70
68826;DHT22;55841;53.392;10.086;2022-11-15T01:08:25;5.60;92.70
68826;DHT22;55841;53.392;10.086;2022-11-15T01:10:50;5.60;92.60
68826;DHT22;55841;53.392;10.086;2022-11-15T01:13:16;5.50;92.60
68826;DHT22;55841;53.392;10.086;2022-11-15T01:15:42;5.50;92.30
68826;DHT22;55841;53.392;10.086;2022-11-15T01:18:07;5.50;92.30
68826;DHT22;55841;53.392;10.086;2022-11-15T01:20:33;5.40;92.00
68826;DHT22;55841;53.392;10.086;2022-11-15T01:22:58;5.40;91.80
68826;DHT22;55841;53.392;10.086;2022-11-15T01:25:24;5.30;91.50
68826;DHT22;55841;53.392;10.086;2022-11-15T01:27:49;5.20;91.10
68826;DHT22;55841;53.392;10.086;2022-11-15T01:30:15;5.20;91.10
68826;DHT22;55841;53.392;10.086;2022-11-15T01:32:40;5.10;91.30
68826;DHT22;55841;53.392;10.086;2022-11-15T01:35:06;5.00;91.30
68826;DHT22;55841;53.392;10.086;2022-11-15T01:37:32;5.00;91.30
68826;DHT22;55841;53.392;10.086;2022-11-15T01:39:57;4.90;91.30
68826;DHT22;55841;53.392;10.086;2022-11-15T01:42:23;4.90;91.20
68826;DHT22;55841;53.392;10.086;2022-11-15T01:44:52;4.80;91.20
68826;DHT22;55841;53.392;10.086;2022-11-15T01:50:19;4.80;90.80
68826;DHT22;55841;53.392;10.086;2022-11-15T01:52:45;4.70;90.70
68826;DHT22;55841;53.392;10.086;2022-11-15T01:55:15;4.70;90.60
68826;DHT22;55841;53.392;10.086;2022-11-15T01:57:42;4.70;90.60
68826;DHT22;55841;53.392;10.086;2022-11-15T02:00:11;4.60;90.90
68826;DHT22;55841;53.392;10.086;2022-11-15T02:02:37;4.60;90.90
68826;DHT22;55841;53.392;10.086;2022-11-15T02:05:03;4.60;91.00
68826;DHT22;55841;53.392;10.086;2022-11-15T02:07:29;4.60;91.00
68826;DHT22;55841;53.392;10.086;2022-11-15T02:09:58;4.50;91.00
68826;DHT22;55841;53.392;10.086;2022-11-15T02:12:27;4.50;90.90
68826;DHT22;55841;53.392;10.086;2022-11-15T02:14:53;4.50;90.80
68826;DHT22;55841;53.392;10.086;2022-11-15T02:17:29;4.40;90.70
68826;DHT22;55841;53.392;10.086;2022-11-15T02:23:06;4.30;90.30
68826;DHT22;55841;53.392;10.086;2022-11-15T02:41:53;4.30;90.10
68826;DHT22;55841;53.392;10.086;2022-11-15T02:44:29;4.30;90.20
68826;DHT22;55841;53.392;10.086;2022-11-15T02:47:00;4.30;90.20
68826;DHT22;55841;53.392;10.086;2022-11-15T02:49:30;4.30;90.30
68826;DHT22;55841;53.392;10.086;2022-11-15T02:51:57;4.30;90.20
68826;DHT22;55841;53.392;10.086;2022-11-15T02:54:29;4.30;90.20
68826;DHT22;55841;53.392;10.086;2022-11-15T02:56:59;4.30;90.20
68826;DHT22;55841;53.392;10.086;2022-11-15T03:04:57;4.30;90.40
68826;DHT22;55841;53.392;10.086;2022-11-15T03:07:35;4.30;90.60
68826;DHT22;55841;53.392;10.086;2022-11-15T03:10:09;4.30;90.60
68826;DHT22;55841;53.392;10.086;2022-11-15T03:12:50;4.30;90.90
68826;DHT22;55841;53.392;10.086;2022-11-15T03:17:48;4.40;91.50
68826;DHT22;55841;53.392;10.086;2022-11-15T03:20:17;4.40;91.10
68826;DHT22;55841;53.392;10.086;2022-11-15T03:22:45;4.40;90.40
68826;DHT22;55841;53.392;10.086;2022-11-15T03:25:17;4.30;89.50
68826;DHT22;55841;53.392;10.086;2022-11-15T03:27:48;4.20;89.40
68826;DHT22;55841;53.392;10.086;2022-11-15T03:30:15;4.10;89.60
68826;DHT22;55841;53.392;10.086;2022-11-15T03:32:46;4.10;89.50
68826;DHT22;55841;53.392;10.086;2022-11-15T03:35:15;4.10;89.50
68826;DHT22;55841;53.392;10.086;2022-11-15T03:37:59;4.00;89.90
68826;DHT22;55841;53.392;10.086;2022-11-15T03:40:36;4.00;90.30
68826;DHT22;55841;53.392;10.086;2022-11-15T03:43:29;4.00;91.00
68826;DHT22;55841;53.392;10.086;2022-11-15T03:46:01;4.00;91.40
68826;DHT22;55841;53.392;10.086;2022-11-15T03:48:33;4.00;91.80
68826;DHT22;55841;53.392;10.086;2022-11-15T03:50:59;4.10;92.10
68826;DHT22;55841;53.392;10.086;2022-11-15T03:53:25;4.10;92.40
68826;DHT22;55841;53.392;10.086;2022-11-15T03:55:52;4.10;92.60
68826;DHT22;55841;53.392;10.086;2022-11-15T03:58:18;4.20;92.90
68826;DHT22;55841;53.392;10.086;2022-11-15T04:00:43;4.20;93.20
68826;DHT22;55841;53.392;10.086;2022-11-15T04:03:09;4.30;93.30
68826;DHT22;55841;53.392;10.086;2022-11-15T04:05:34;4.30;93.30
68826;DHT22;55841;53.392;10.086;2022-11-15T04:08:00;4.30;93.20
68826;DHT22;55841;53.392;10.086;2022-11-15T04:10:25;4.30;93.00
68826;DHT22;55841;53.392;10.086;2022-11-15T04:12:51;4.30;92.90
68826;DHT22;55841;53.392;10.086;2022-11-15T04:15:22;4.30;92.70
68826;DHT22;55841;53.392;10.086;2022-11-15T04:17:56;4.30;92.30
68826;DHT22;55841;53.392;10.086;2022-11-15T04:20:27;4.30;92.30
68826;DHT22;55841;53.392;10.086;2022-11-15T04:22:54;4.30;92.20
68826;DHT22;55841;53.392;10.086;2022-11-15T04:25:19;4.30;92.20
68826;DHT22;55841;53.392;10.086;2022-11-15T04:27:45;4.30;92.30
68826;DHT22;55841;53.392;10.086;2022-11-15T04:30:10;4.30;92.60
68826;DHT22;55841;53.392;10.086;2022-11-15T04:32:36;4.40;93.00
68826;DHT22;55841;53.392;10.086;2022-11-15T04:35:02;4.40;93.20
68826;DHT22;55841;53.392;10.086;2022-11-15T04:37:27;4.50;93.50
68826;DHT22;55841;53.392;10.086;2022-11-15T04:39:53;4.60;93.70
68826;DHT22;55841;53.392;10.086;2022-11-15T04:42:18;4.60;93.90
68826;DHT22;55841;53.392;10.086;2022-11-15T04:44:44;4.70;93.90
68826;DHT22;55841;53.392;10.086;2022-11-15T04:47:09;4.80;94.10
68826;DHT22;55841;53.392;10.086;2022-11-15T04:49:35;4.80;94.10
68826;DHT22;55841;53.392;10.086;2022-11-15T04:52:00;4.90;94.10
68826;DHT22;55841;53.392;10.086;2022-11-15T04:54:26;4.90;94.20
68826;DHT22;55841;53.392;10.086;2022-11-15T04:56:51;5.00;94.20
68826;DHT22;55841;53.392;10.086;2022-11-15T04:59:17;5.00;94.40
68826;DHT22;55841;53.392;10.086;2022-11-15T05:01:42;5.00;94.40
68826;DHT22;55841;53.392;10.086;2022-11-15T05:04:08;5.10;94.60
68826;DHT22;55841;53.392;10.086;2022-11-15T05:06:33;5.10;94.70
68826;DHT22;55841;53.392;10.086;2022-11-15T05:08:59;5.20;94.80
68826;DHT22;55841;53.392;10.086;2022-11-15T05:11:24;5.20;94.70
68826;DHT22;55841;53.392;10.086;2022-11-15T05:13:50;5.20;94.60
68826;DHT22;55841;53.392;10.086;2022-11-15T05:16:16;5.30;94.50
68826;DHT22;55841;53.392;10.086;2022-11-15T05:18:41;5.30;94.50
68826;DHT22;55841;53.392;10.086;2022-11-15T05:21:10;5.30;94.40
68826;DHT22;55841;53.392;10.086;2022-11-15T05:23:37;5.30;94.30
68826;DHT22;55841;53.392;10.086;2022-11-15T05:26:04;5.30;94.30
68826;DHT22;55841;53.392;10.086;2022-11-15T05:28:30;5.30;94.40
68826;DHT22;55841;53.392;10.086;2022-11-15T05:31:07;5.40;94.40
68826;DHT22;55841;53.392;10.086;2022-11-15T05:33:34;5.40;94.30
68826;DHT22;55841;53.392;10.086;2022-11-15T05:36:05;5.30;94.00
68826;DHT22;55841;53.392;10.086;2022-11-15T05:38:33;5.30;94.10
68826;DHT22;55841;53.392;10.086;2022-11-15T05:41:00;5.40;94.20
68826;DHT22;55841;53.392;10.086;2022-11-15T05:43:26;5.30;94.10
68826;DHT22;55841;53.392;10.086;2022-11-15T05:45:52;5.40;94.10
68826;DHT22;55841;53.392;10.086;2022-11-15T05:48:18;5.40;94.20
68826;DHT22;55841;53.392;10.086;2022-11-15T05:50:46;5.30;94.20
68826;DHT22;55841;53.392;10.086;2022-11-15T05:53:14;5.30;94.10
68826;DHT22;55841;53.392;10.086;2022-11-15T05:55:41;5.30;94.30
68826;DHT22;55841;53.392;10.086;2022-11-15T05:58:07;5.30;94.50
68826;DHT22;55841;53.392;10.086;2022-11-15T06:00:33;5.40;94.50
68826;DHT22;55841;53.392;10.086;2022-11-15T06:02:58;5.40;94.70
68826;DHT22;55841;53.392;10.086;2022-11-15T06:05:24;5.40;94.70
68826;DHT22;55841;53.392;10.086;2022-11-15T06:07:49;5.50;94.70
68826;DHT22;55841;53.392;10.086;2022-11-15T06:10:15;5.50;94.80
68826;DHT22;55841;53.392;10.086;2022-11-15T06:12:40;5.50;94.80
68826;DHT22;55841;53.392;10.086;2022-11-15T06:15:06;5.60;94.80
68826;DHT22;55841;53.392;10.086;2022-11-15T06:17:32;5.60;94.80
68826;DHT22;55841;53.392;10.086;2022-11-15T06:19:58;5.60;94.80
68826;DHT22;55841;53.392;10.086;2022-11-15T06:22:23;5.70;94.80
68826;DHT22;55841;53.392;10.086;2022-11-15T06:24:49;5.70;94.80
68826;DHT22;55841;53.392;10.086;2022-11-15T06:27:14;5.70;94.80
68826;DHT22;55841;53.392;10.086;2022-11-15T06:29:40;5.80;94.80
68826;DHT22;55841;53.392;10.086;2022-11-15T06:32:05;5.80;94.80
68826;DHT22;55841;53.392;10.086;2022-11-15T06:34:31;5.80;94.80
68826;DHT22;55841;53.392;10.086;2022-11-15T06:36:56;5.80;94.80
68826;DHT22;55841;53.392;10.086;2022-11-15T06:39:22;5.90;94.80
68826;DHT22;55841;53.392;10.086;2022-11-15T06:41:47;5.90;94.80
68826;DHT22;55841;53.392;10.086;2022-11-15T06:44:13;5.90;94.70
68826;DHT22;55841;53.392;10.086;2022-11-15T06:46:38;5.90;94.70
68826;DHT22;55841;53.392;10.086;2022-11-15T06:49:04;5.90;94.60
68826;DHT22;55841;53.392;10.086;2022-11-15T06:51:29;5.90;94.60
68826;DHT22;55841;53.392;10.086;2022-11-15T06:53:55;5.90;94.60
68826;DHT22;55841;53.392;10.086;2022-11-15T06:56:20;5.90;94.60
68826;DHT22;55841;53.392;10.086;2022-11-15T06:58:46;5.90;94.70
68826;DHT22;55841;53.392;10.086;2022-11-15T07:01:12;6.00;94.70
68826;DHT22;55841;53.392;10.086;2022-11-15T07:03:39;6.00;94.60
68826;DHT22;55841;53.392;10.086;2022-11-15T07:06:05;6.00;94.70
68826;DHT22;55841;53.392;10.086;2022-11-15T07:08:31;6.00;94.70
68826;DHT22;55841;53.392;10.086;2022-11-15T07:11:01;6.00;94.80
68826;DHT22;55841;53.392;10.086;2022-11-15T07:13:28;6.10;94.70
68826;DHT22;55841;53.392;10.086;2022-11-15T07:15:55;6.10;94.70
68826;DHT22;55841;53.392;10.086;2022-11-15T07:18:20;6.10;94.90
68826;DHT22;55841;53.392;10.086;2022-11-15T07:20:46;6.10;94.90
68826;DHT22;55841;53.392;10.086;2022-11-15T07:23:12;6.20;94.80
68826;DHT22;55841;53.392;10.086;2022-11-15T07:25:37;6.20;94.70
68826;DHT22;55841;53.392;10.086;2022-11-15T07:28:03;6.20;94.70
68826;DHT22;55841;53.392;10.086;2022-11-15T07:30:29;6.30;94.80
68826;DHT22;55841;53.392;10.086;2022-11-15T07:32:59;6.30;94.80
68826;DHT22;55841;53.392;10.086;2022-11-15T07:35:26;6.30;94.70
68826;DHT22;55841;53.392;10.086;2022-11-15T07:40:22;6.40;94.70
68826;DHT22;55841;53.392;10.086;2022-11-15T07:42:47;6.40;94.60
68826;DHT22;55841;53.392;10.086;2022-11-15T07:45:13;6.40;94.60
68826;DHT22;55841;53.392;10.086;2022-11-15T07:47:38;6.50;94.50
68826;DHT22;55841;53.392;10.086;2022-11-15T07:50:04;6.50;94.50
68826;DHT22;55841;53.392;10.086;2022-11-15T07:52:30;6.50;94.70
68826;DHT22;55841;53.392;10.086;2022-11-15T07:54:55;6.50;94.60
68826;DHT22;55841;53.392;10.086;2022-11-15T07:57:21;6.60;94.50
68826;DHT22;55841;53.392;10.086;2022-11-15T07:59:46;6.60;94.50
68826;DHT22;55841;53.392;10.086;2022-11-15T08:02:11;6.60;94.40
68826;DHT22;55841;53.392;10.086;2022-11-15T08:04:37;6.60;94.40
68826;DHT22;55841;53.392;10.086;2022-11-15T08:07:02;6.60;94.50
68826;DHT22;55841;53.392;10.086;2022-11-15T08:09:28;6.70;94.40
68826;DHT22;55841;53.392;10.086;2022-11-15T08:11:53;6.70;94.30
68826;DHT22;55841;53.392;10.086;2022-11-15T08:14:19;6.70;94.10
68826;DHT22;55841;53.392;10.086;2022-11-15T08:16:45;6.80;94.10
68826;DHT22;55841;53.392;10.086;2022-11-15T08:19:10;6.80;94.00
68826;DHT22;55841;53.392;10.086;2022-11-15T08:21:35;6.80;94.00
68826;DHT22;55841;53.392;10.086;2022-11-15T08:24:01;6.80;94.10
68826;DHT22;55841;53.392;10.086;2022-11-15T08:26:27;6.80;94.20
68826;DHT22;55841;53.392;10.086;2022-11-15T08:28:52;6.80;94.20
68826;DHT22;55841;53.392;10.086;2022-11-15T08:31:18;6.90;94.30
68826;DHT22;55841;53.392;10.086;2022-11-15T08:33:44;6.90;94.20
68826;DHT22;55841;53.392;10.086;2022-11-15T08:36:14;7.00;94.00
68826;DHT22;55841;53.392;10.086;2022-11-15T08:38:41;7.00;94.00
68826;DHT22;55841;53.392;10.086;2022-11-15T08:41:07;7.10;94.10
68826;DHT22;55841;53.392;10.086;2022-11-15T08:43:32;7.30;93.90
68826;DHT22;55841;53.392;10.086;2022-11-15T08:45:58;7.30;93.60
68826;DHT22;55841;53.392;10.086;2022-11-15T08:48:24;7.40;93.20
68826;DHT22;55841;53.392;10.086;2022-11-15T08:50:53;7.50;93.10
68826;DHT22;55841;53.392;10.086;2022-11-15T08:53:19;7.60;93.00
68826;DHT22;55841;53.392;10.086;2022-11-15T08:55:45;7.70;92.60
68826;DHT22;55841;53.392;10.086;2022-11-15T08:58:10;7.80;92.20
68826;DHT22;55841;53.392;10.086;2022-11-15T09:00:36;7.90;91.90
68826;DHT22;55841;53.392;10.086;2022-11-15T09:03:04;8.00;91.40
68826;DHT22;55841;53.392;10.086;2022-11-15T09:05:30;8.20;90.80
68826;DHT22;55841;53.392;10.086;2022-11-15T09:07:55;8.30;90.20
68826;DHT22;55841;53.392;10.086;2022-11-15T09:10:21;8.40;89.50
68826;DHT22;55841;53.392;10.086;2022-11-15T09:12:47;8.50;88.40
68826;DHT22;55841;53.392;10.086;2022-11-15T09:15:12;8.50;88.50
68826;DHT22;55841;53.392;10.086;2022-11-15T09:17:38;8.40;88.30
68826;DHT22;55841;53.392;10.086;2022-11-15T09:20:04;8.40;88.30
68826;DHT22;55841;53.392;10.086;2022-11-15T09:22:29;8.40;88.80
68826;DHT22;55841;53.392;10.086;2022-11-15T09:24:55;8.40;89.00
68826;DHT22;55841;53.392;10.086;2022-11-15T09:27:20;8.40;89.20
68826;DHT22;55841;53.392;10.086;2022-11-15T09:29:46;8.40;89.70
68826;DHT22;55841;53.392;10.086;2022-11-15T09:32:11;8.40;90.10
68826;DHT22;55841;53.392;10.086;2022-11-15T09:34:37;8.40;90.40
68826;DHT22;55841;53.392;10.086;2022-11-15T09:37:02;8.60;90.80
68826;DHT22;55841;53.392;10.086;2022-11-15T09:39:28;8.70;91.00
68826;DHT22;55841;53.392;10.086;2022-11-15T09:42:20;8.90;91.10
68826;DHT22;55841;53.392;10.086;2022-11-15T09:50:11;9.80;89.80
68826;DHT22;55841;53.392;10.086;2022-11-15T09:52:39;10.20;88.90
68826;DHT22;55841;53.392;10.086;2022-11-15T09:55:09;10.40;86.60
68826;DHT22;55841;53.392;10.086;2022-11-15T09:57:44;10.50;85.80
68826;DHT22;55841;53.392;10.086;2022-11-15T10:00:22;10.50;85.90
68826;DHT22;55841;53.392;10.086;2022-11-15T10:02:58;10.50;86.00
68826;DHT22;55841;53.392;10.086;2022-11-15T10:05:26;10.50;86.30
68826;DHT22;55841;53.392;10.086;2022-11-15T10:10:35;10.40;86.90
68826;DHT22;55841;53.392;10.086;2022-11-15T10:13:02;10.40;86.90
68826;DHT22;55841;53.392;10.086;2022-11-15T10:15:28;10.40;87.40
68826;DHT22;55841;53.392;10.086;2022-11-15T10:20:30;10.30;87.50
68826;DHT22;55841;53.392;10.086;2022-11-15T10:23:05;10.30;87.80
68826;DHT22;55841;53.392;10.086;2022-11-15T10:25:33;10.30;88.10
68826;DHT22;55841;53.392;10.086;2022-11-15T10:28:16;10.30;88.20
68826;DHT22;55841;53.392;10.086;2022-11-15T10:30:48;10.30;88.20
68826;DHT22;55841;53.392;10.086;2022-11-15T10:41:14;10.30;88.10
68826;DHT22;55841;53.392;10.086;2022-11-15T10:43:39;10.30;88.10
68826;DHT22;55841;53.392;10.086;2022-11-15T10:46:22;10.30;88.20
68826;DHT22;55841;53.392;10.086;2022-11-15T10:48:48;10.30;88.30
68826;DHT22;55841;53.392;10.086;2022-11-15T10:51:24;10.30;88.40
68826;DHT22;55841;53.392;10.086;2022-11-15T10:53:51;10.30;88.40
68826;DHT22;55841;53.392;10.086;2022-11-15T10:56:21;10.30;88.50
68826;DHT22;55841;53.392;10.086;2022-11-15T10:58:53;10.40;88.50
68826;DHT22;55841;53.392;10.086;2022-11-15T11:01:22;10.40;88.50
68826;DHT22;55841;53.392;10.086;2022-11-15T11:04:11;10.40;88.50
68826;DHT22;55841;53.392;10.086;2022-11-15T11:06:54;10.40;88.40
68826;DHT22;55841;53.392;10.086;2022-11-15T11:11:56;10.40;87.80
68826;DHT22;55841;53.392;10.086;2022-11-15T11:14:27;10.40;87.70
68826;DHT22;55841;53.392;10.086;2022-11-15T11:19:49;10.40;87.90
68826;DHT22;55841;53.392;10.086;2022-11-15T11:27:49;10.40;87.40
68826;DHT22;55841;53.392;10.086;2022-11-15T11:30:23;10.40;87.60
68826;DHT22;55841;53.392;10.086;2022-11-15T11:32:59;10.40;88.20
68826;DHT22;55841;53.392;10.086;2022-11-15T11:35:41;10.40;87.90
68826;DHT22;55841;53.392;10.086;2022-11-15T11:49:20;10.50;88.10
68826;DHT22;55841;53.392;10.086;2022-11-15T11:51:56;10.60;88.30
68826;DHT22;55841;53.392;10.086;2022-11-15T11:56:58;10.90;87.60
68826;DHT22;55841;53.392;10.086;2022-11-15T12:00:03;11.10;86.80
68826;DHT22;55841;53.392;10.086;2022-11-15T12:02:35;11.60;85.90
68826;DHT22;55841;53.392;10.086;2022-11-15T12:05:20;12.10;83.40
68826;DHT22;55841;53.392;10.086;2022-11-15T12:07:49;12.50;81.30
68826;DHT22;55841;53.392;10.086;2022-11-15T12:10:28;12.80;80.50
68826;DHT22;55841;53.392;10.086;2022-11-15T12:13:11;13.20;78.90
68826;DHT22;55841;53.392;10.086;2022-11-15T12:15:45;13.60;77.00
68826;DHT22;55841;53.392;10.086;2022-11-15T12:18:15;13.90;76.20
68826;DHT22;55841;53.392;10.086;2022-11-15T12:21:00;14.20;75.40
68826;DHT22;55841;53.392;10.086;2022-11-15T12:23:30;14.50;74.00
68826;DHT22;55841;53.392;10.086;2022-11-15T12:26:10;14.90;73.00
68826;DHT22;55841;53.392;10.086;2022-11-15T12:28:54;15.00;71.20
68826;DHT22;55841;53.392;10.086;2022-11-15T12:34:02;14.90;71.80
68826;DHT22;55841;53.392;10.086;2022-11-15T12:36:41;14.90;71.50
68826;DHT22;55841;53.392;10.086;2022-11-15T12:39:12;14.80;71.70
68826;DHT22;55841;53.392;10.086;2022-11-15T12:41:39;14.70;72.40
68826;DHT22;55841;53.392;10.086;2022-11-15T12:44:11;14.70;72.40
68826;DHT22;55841;53.392;10.086;2022-11-15T12:49:42;14.30;73.10
68826;DHT22;55841;53.392;10.086;2022-11-15T12:52:09;14.10;73.90
68826;DHT22;55841;53.392;10.086;2022-11-15T13:02:40;13.40;76.90
68826;DHT22;55841;53.392;10.086;2022-11-15T13:17:42;13.00;79.50
68826;DHT22;55841;53.392;10.086;2022-11-15T13:22:40;13.00;79.40
68826;DHT22;55841;53.392;10.086;2022-11-15T13:25:14;13.00;79.70
68826;DHT22;55841;53.392;10.086;2022-11-15T13:27:40;12.90;80.30
68826;DHT22;55841;53.392;10.086;2022-11-15T13:30:19;12.90;80.60
68826;DHT22;55841;53.392;10.086;2022-11-15T13:32:45;12.90;80.80
68826;DHT22;55841;53.392;10.086;2022-11-15T13:35:19;12.90;80.90
68826;DHT22;55841;53.392;10.086;2022-11-15T13:37:45;12.80;81.00
68826;DHT22;55841;53.392;10.086;2022-11-15T13:42:49;12.80;80.90
68826;DHT22;55841;53.392;10.086;2022-11-15T13:45:17;12.80;80.70
68826;DHT22;55841;53.392;10.086;2022-11-15T13:47:43;12.70;80.80
68826;DHT22;55841;53.392;10.086;2022-11-15T13:50:12;12.70;80.20
68826;DHT22;55841;53.392;10.086;2022-11-15T13:52:40;12.60;80.50
68826;DHT22;55841;53.392;10.086;2022-11-15T13:55:17;12.60;80.50
68826;DHT22;55841;53.392;10.086;2022-11-15T14:00:29;12.60;80.70
68826;DHT22;55841;53.392;10.086;2022-11-15T14:02:57;12.60;80.80
68826;DHT22;55841;53.392;10.086;2022-11-15T14:05:29;12.60;80.60
68826;DHT22;55841;53.392;10.086;2022-11-15T14:08:05;12.60;80.50
68826;DHT22;55841;53.392;10.086;2022-11-15T14:10:38;12.60;80.60
68826;DHT22;55841;53.392;10.086;2022-11-15T14:13:11;12.60;80.40
68826;DHT22;55841;53.392;10.086;2022-11-15T14:15:51;12.50;80.50
68826;DHT22;55841;53.392;10.086;2022-11-15T14:18:40;12.50;80.80
68826;DHT22;55841;53.392;10.086;2022-11-15T14:21:07;12.50;80.90
68826;DHT22;55841;53.392;10.086;2022-11-15T14:23:33;12.50;81.10
68826;DHT22;55841;53.392;10.086;2022-11-15T14:25:59;12.50;81.20
68826;DHT22;55841;53.392;10.086;2022-11-15T14:30:56;12.40;81.50
68826;DHT22;55841;53.392;10.086;2022-11-15T14:33:30;12.40;81.70
68826;DHT22;55841;53.392;10.086;2022-11-15T14:35:58;12.30;81.90
68826;DHT22;55841;53.392;10.086;2022-11-15T14:38:27;12.30;82.00
68826;DHT22;55841;53.392;10.086;2022-11-15T14:40:52;12.20;82.20
68826;DHT22;55841;53.392;10.086;2022-11-15T14:43:19;12.20;82.30
68826;DHT22;55841;53.392;10.086;2022-11-15T14:45:44;12.20;82.50
68826;DHT22;55841;53.392;10.086;2022-11-15T14:48:10;12.20;82.40
68826;DHT22;55841;53.392;10.086;2022-11-15T14:50:36;12.10;82.70
68826;DHT22;55841;53.392;10.086;2022-11-15T14:53:02;12.10;82.80
68826;DHT22;55841;53.392;10.086;2022-11-15T14:55:33;12.00;83.00
68826;DHT22;55841;53.392;10.086;2022-11-15T14:57:59;11.90;83.20
68826;DHT22;55841;53.392;10.086;2022-11-15T15:00:25;11.80;83.50
68826;DHT22;55841;53.392;10.086;2022-11-15T15:02:53;11.80;83.70
68826;DHT22;55841;53.392;10.086;2022-11-15T15:07:46;11.60;84.50
68826;DHT22;55841;53.392;10.086;2022-11-15T15:10:13;11.50;84.70
68826;DHT22;55841;53.392;10.086;2022-11-15T15:12:39;11.50;85.10
68826;DHT22;55841;53.392;10.086;2022-11-15T15:15:08;11.40;85.30
68826;DHT22;55841;53.392;10.086;2022-11-15T15:17:36;11.30;85.60
68826;DHT22;55841;53.392;10.086;2022-11-15T15:20:02;11.20;85.80
68826;DHT22;55841;53.392;10.086;2022-11-15T15:22:28;11.10;86.10
68826;DHT22;55841;53.392;10.086;2022-11-15T15:24:54;11.00;86.40
68826;DHT22;55841;53.392;10.086;2022-11-15T15:27:20;10.90;86.60
68826;DHT22;55841;53.392;10.086;2022-11-15T15:29:45;10.80;86.90
68826;DHT22;55841;53.392;10.086;2022-11-15T15:32:10;10.70;87.10
68826;DHT22;55841;53.392;10.086;2022-11-15T15:34:36;10.60;87.30
68826;DHT22;55841;53.392;10.086;2022-11-15T15:37:19;10.50;87.60
68826;DHT22;55841;53.392;10.086;2022-11-15T15:39:46;10.50;87.90
68826;DHT22;55841;53.392;10.086;2022-11-15T15:42:12;10.40;88.20
68826;DHT22;55841;53.392;10.086;2022-11-15T15:44:37;10.30;88.50
68826;DHT22;55841;53.392;10.086;2022-11-15T15:47:13;10.20;88.70
68826;DHT22;55841;53.392;10.086;2022-11-15T15:49:39;10.20;88.90
68826;DHT22;55841;53.392;10.086;2022-11-15T15:52:05;10.10;89.10
68826;DHT22;55841;53.392;10.086;2022-11-15T15:54:30;10.00;89.20
68826;DHT22;55841;53.392;10.086;2022-11-15T15:56:56;10.00;89.50
68826;DHT22;55841;53.392;10.086;2022-11-15T15:59:21;10.00;89.70
68826;DHT22;55841;53.392;10.086;2022-11-15T16:01:47;9.90;89.80
68826;DHT22;55841;53.392;10.086;2022-11-15T16:04:12;9.90;90.00
68826;DHT22;55841;53.392;10.086;2022-11-15T16:06:40;9.90;90.30
68826;DHT22;55841;53.392;10.086;2022-11-15T16:09:06;9.80;90.50
68826;DHT22;55841;53.392;10.086;2022-11-15T16:11:33;9.80;90.70
68826;DHT22;55841;53.392;10.086;2022-11-15T16:13:59;9.80;90.90
68826;DHT22;55841;53.392;10.086;2022-11-15T16:16:24;9.80;91.00
68826;DHT22;55841;53.392;10.086;2022-11-15T16:18:50;9.80;91.10
68826;DHT22;55841;53.392;10.086;2022-11-15T16:21:15;9.80;91.20
68826;DHT22;55841;53.392;10.086;2022-11-15T16:23:41;9.70;91.30
68826;DHT22;55841;53.392;10.086;2022-11-15T16:26:18;9.80;91.40
68826;DHT22;55841;53.392;10.086;2022-11-15T16:28:44;9.70;91.50
68826;DHT22;55841;53.392;10.086;2022-11-15T16:31:11;9.70;91.40
68826;DHT22;55841;53.392;10.086;2022-11-15T16:33:38;9.70;91.50
68826;DHT22;55841;53.392;10.086;2022-11-15T16:36:05;9.70;91.60
68826;DHT22;55841;53.392;10.086;2022-11-15T16:38:31;9.70;91.60
68826;DHT22;55841;53.392;10.086;2022-11-15T16:40:57;9.70;91.70
68826;DHT22;55841;53.392;10.086;2022-11-15T16:43:22;9.70;91.90
68826;DHT22;55841;53.392;10.086;2022-11-15T16:45:49;9.70;92.00
68826;DHT22;55841;53.392;10.086;2022-11-15T16:50:47;9.60;92.20
68826;DHT22;55841;53.392;10.086;2022-11-15T16:53:12;9.60;92.20
68826;DHT22;55841;53.392;10.086;2022-11-15T16:55:38;9.60;92.20
68826;DHT22;55841;53.392;10.086;2022-11-15T16:58:03;9.60;92.20
68826;DHT22;55841;53.392;10.086;2022-11-15T17:00:29;9.60;92.40
68826;DHT22;55841;53.392;10.086;2022-11-15T17:02:54;9.60;92.30
68826;DHT22;55841;53.392;10.086;2022-11-15T17:05:21;9.60;92.40
68826;DHT22;55841;53.392;10.086;2022-11-15T17:07:48;9.60;92.20
68826;DHT22;55841;53.392;10.086;2022-11-15T17:10:14;9.50;92.10
68826;DHT22;55841;53.392;10.086;2022-11-15T17:12:39;9.50;92.20
68826;DHT22;55841;53.392;10.086;2022-11-15T17:15:05;9.50;92.30
68826;DHT22;55841;53.392;10.086;2022-11-15T17:17:31;9.50;92.40
68826;DHT22;55841;53.392;10.086;2022-11-15T17:19:57;9.40;92.50
68826;DHT22;55841;53.392;10.086;2022-11-15T17:22:23;9.40;92.50
68826;DHT22;55841;53.392;10.086;2022-11-15T17:24:48;9.40;92.50
68826;DHT22;55841;53.392;10.086;2022-11-15T17:27:14;9.40;92.60
68826;DHT22;55841;53.392;10.086;2022-11-15T17:29:40;9.40;92.70